createdAt,value
2018-07-09T00:01:14.210Z,8.47
2018-07-09T00:03:42.529Z,6.63
2018-07-09T00:06:10.822Z,6.13
2018-07-09T00:08:39.085Z,5.03
2018-07-09T00:11:08.182Z,6.83
2018-07-09T00:13:37.601Z,7.97
2018-07-09T00:16:05.915Z,5.97
2018-07-09T00:18:34.250Z,6.17
2018-07-09T16:28:54.426Z,3.20
2018-07-09T16:31:22.935Z,11.77
2018-07-09T16:33:51.202Z,3.73
2018-07-09T16:36:19.515Z,6.53
2018-07-09T16:38:47.803Z,9.55
2018-07-09T16:41:16.240Z,65.23
2018-07-09T16:43:44.558Z,79.60
2018-07-09T16:46:13.004Z,17.10
2018-07-09T16:48:41.291Z,14.63
2018-07-09T16:51:09.686Z,12.63
2018-07-09T16:53:38.062Z,20.43
2018-07-09T16:56:06.623Z,23.27
2018-07-09T16:58:34.914Z,12.57
2018-07-09T17:01:03.294Z,6.73
2018-07-09T17:03:31.716Z,6.20
2018-07-09T17:06:00.028Z,6.70
2018-07-09T17:08:28.354Z,5.93
2018-07-09T17:10:56.649Z,3.37
2018-07-09T17:13:24.920Z,3.57
2018-07-09T17:15:53.263Z,4.20
2018-07-09T17:18:21.710Z,4.13
2018-07-09T17:20:49.988Z,2.50
2018-07-09T17:23:18.286Z,5.63
2018-07-09T17:25:46.641Z,17.00
2018-07-09T17:28:15.144Z,10.10
2018-07-09T17:30:43.423Z,10.43
2018-07-09T17:33:11.710Z,8.70
2018-07-09T17:35:40.007Z,11.87
2018-07-09T17:38:08.283Z,6.77
2018-07-09T17:40:36.733Z,5.37
2018-07-09T17:43:05.087Z,6.33
2018-07-09T17:45:33.375Z,3.73
2018-07-09T17:48:01.771Z,3.43
2018-07-09T17:50:30.440Z,4.43
2018-07-09T17:52:58.743Z,6.57
2018-07-09T17:55:27.010Z,2.23
2018-07-09T17:57:55.283Z,5.00
2018-07-09T18:00:23.572Z,3.63
2018-07-09T18:02:51.841Z,7.13
2018-07-09T18:05:20.144Z,4.97
2018-07-09T18:07:48.440Z,4.37
2018-07-09T18:10:17.102Z,4.03
2018-07-09T18:12:45.380Z,4.93
2018-07-09T18:15:13.671Z,6.10
2018-07-09T18:17:42.182Z,4.07
2018-07-09T18:20:10.585Z,1.93
2018-07-09T18:22:38.891Z,3.33
2018-07-09T18:25:08.016Z,3.80
2018-07-09T18:27:36.308Z,4.77
2018-07-09T18:30:04.590Z,5.47
2018-07-09T18:32:32.980Z,7.27
2018-07-09T18:35:01.198Z,3.80
2018-07-09T18:37:29.518Z,7.23
2018-07-09T18:39:57.842Z,2.17
2018-07-09T18:42:26.134Z,2.77
2018-07-09T18:44:54.559Z,3.17
2018-07-09T18:47:22.877Z,5.50
2018-07-09T18:49:51.221Z,2.30
2018-07-09T18:52:19.485Z,4.13
2018-07-09T18:54:48.086Z,5.03
2018-07-09T18:57:16.719Z,3.10
2018-07-09T18:59:44.976Z,3.30
2018-07-09T19:02:13.332Z,3.47
2018-07-09T19:04:41.815Z,1.50
2018-07-09T19:07:11.435Z,5.40
2018-07-09T19:09:40.259Z,5.50
2018-07-09T19:12:09.275Z,4.23
2018-07-09T19:14:41.465Z,2.73
2018-07-09T19:18:20.013Z,3.20
2018-07-09T19:21:29.478Z,4.20
2018-07-09T19:23:56.887Z,2.40
2018-07-09T19:26:24.090Z,6.43
2018-07-09T19:28:51.497Z,5.53
2018-07-09T19:31:18.834Z,3.40
2018-07-09T19:33:46.227Z,4.60
2018-07-09T19:36:13.438Z,7.30
2018-07-09T19:38:40.988Z,3.83
2018-07-09T19:41:08.524Z,3.97
2018-07-09T19:43:36.075Z,4.90
2018-07-09T19:46:03.316Z,5.87
2018-07-09T19:48:30.537Z,4.33
2018-07-09T19:50:57.750Z,6.90
2018-07-09T19:53:24.957Z,2.63
2018-07-09T19:55:52.177Z,3.07
2018-07-09T19:58:19.398Z,3.53
2018-07-09T20:00:46.613Z,5.80
2018-07-09T20:03:13.840Z,6.13
2018-07-09T20:05:41.054Z,2.57
2018-07-09T20:08:08.768Z,8.13
2018-07-09T20:10:41.386Z,3.50
2018-07-09T20:13:15.808Z,3.00
2018-07-09T20:15:48.592Z,4.23
2018-07-09T20:18:15.821Z,4.47
2018-07-09T20:20:43.041Z,4.57
2018-07-09T20:23:10.266Z,6.20
2018-07-09T20:25:37.646Z,5.47
2018-07-09T20:28:04.867Z,6.00
2018-07-09T20:30:32.073Z,4.23
2018-07-09T20:32:59.295Z,7.90
2018-07-09T20:35:26.501Z,1.87
2018-07-09T20:37:53.718Z,4.43
2018-07-09T20:40:20.942Z,2.37
2018-07-09T20:42:48.148Z,4.10
2018-07-09T20:45:15.372Z,3.40
2018-07-09T20:47:42.603Z,1.80
2018-07-09T20:50:09.814Z,4.90
2018-07-09T20:52:37.042Z,5.97
2018-07-09T20:55:04.262Z,4.43
2018-07-09T20:57:31.465Z,3.33
2018-07-09T20:59:58.706Z,7.47
2018-07-09T21:02:25.924Z,3.37
2018-07-09T21:04:53.491Z,3.57
2018-07-09T21:07:20.634Z,5.00
2018-07-09T21:09:47.845Z,3.37
2018-07-09T21:12:15.056Z,3.97
2018-07-09T21:14:42.280Z,3.43
2018-07-09T21:17:09.512Z,5.07
2018-07-09T21:19:36.735Z,4.63
2018-07-09T21:22:04.017Z,5.63
2018-07-09T21:24:31.189Z,5.73
2018-07-09T21:26:58.399Z,4.23
2018-07-09T21:29:25.676Z,5.07
2018-07-09T21:31:52.874Z,1.90
2018-07-09T21:34:21.649Z,5.80
2018-07-09T21:36:48.864Z,6.30
2018-07-09T21:39:16.085Z,3.73
2018-07-09T21:41:43.525Z,2.83
2018-07-09T21:44:10.779Z,6.23
2018-07-09T21:46:38.014Z,5.67
2018-07-09T21:49:07.756Z,2.67
2018-07-09T21:51:35.123Z,7.77
2018-07-09T21:54:02.366Z,4.23
2018-07-09T21:56:29.640Z,3.73
2018-07-09T21:58:56.939Z,2.87
2018-07-09T22:01:24.242Z,3.20
2018-07-09T22:03:51.438Z,2.27
2018-07-09T22:06:18.768Z,8.70
2018-07-09T22:08:46.308Z,2.30
2018-07-09T22:11:13.524Z,7.13
2018-07-09T22:13:40.731Z,2.73
2018-07-09T22:16:08.041Z,5.07
2018-07-09T22:18:35.259Z,5.73
2018-07-09T22:21:02.482Z,2.13
2018-07-09T22:23:29.678Z,2.30
2018-07-09T22:25:56.904Z,2.50
2018-07-09T22:28:24.241Z,2.80
2018-07-09T22:30:52.680Z,4.60
2018-07-09T22:33:21.161Z,2.57
2018-07-09T22:35:49.551Z,3.37
2018-07-09T22:38:17.834Z,4.40
2018-07-09T22:40:46.275Z,6.40
2018-07-09T22:43:26.139Z,5.37
2018-07-09T22:45:54.545Z,5.50
2018-07-09T22:48:22.879Z,1.93
2018-07-09T22:50:51.290Z,5.53
2018-07-09T22:53:19.553Z,2.63
2018-07-09T22:55:59.024Z,2.50
2018-07-09T22:58:27.447Z,4.63
2018-07-09T23:00:55.439Z,3.80
2018-07-09T23:03:23.865Z,3.73
2018-07-09T23:05:52.200Z,2.47
2018-07-09T23:08:20.448Z,7.73
2018-07-09T23:12:58.717Z,7.60
2018-07-09T23:16:42.091Z,4.53
2018-07-09T23:19:27.828Z,7.07
2018-07-09T23:22:21.645Z,25.00
2018-07-09T23:24:48.866Z,36.03
2018-07-09T23:27:16.072Z,21.30
2018-07-09T23:29:43.303Z,11.00
2018-07-09T23:32:10.528Z,11.33
2018-07-09T23:34:37.761Z,4.20
2018-07-09T23:37:04.972Z,6.00
2018-07-09T23:39:32.181Z,4.23
2018-07-09T23:41:59.444Z,4.97
2018-07-09T23:44:26.615Z,3.77
2018-07-09T23:46:53.821Z,2.90
